sensor_id;sensor_type;location;lat;lon;timestamp;pressure;altitude;pressure_sealevel;temperature;humidity
13765;BME280;6953;48.810;9.204;2023-03-01T00:00:49;99633.84;;;0.50;87.04
13765;BME280;6953;48.810;9.204;2023-03-01T00:03:15;99351.69;;;-0.82;87.06
13765;BME280;6953;48.810;9.204;2023-03-01T00:05:47;99572.78;;;0.47;86.97
13765;BME280;6953;48.810;9.204;2023-03-01T00:08:12;99331.06;;;-1.00;86.55
13765;BME280;6953;48.810;9.204;2023-03-01T00:10:38;99522.00;;;0.12;86.85
13765;BME280;6953;48.810;9.204;2023-03-01T00:13:03;99576.19;;;0.42;87.26
13765;BME280;6953;48.810;9.204;2023-03-01T00:15:31;99227.09;;;-1.57;86.84
13765;BME280;6953;48.810;9.204;2023-03-01T00:17:57;99574.47;;;0.42;87.26
13765;BME280;6953;48.810;9.204;2023-03-01T00:20:22;99558.13;;;0.31;87.43
13765;BME280;6953;48.810;9.204;2023-03-01T00:22:47;99616.63;;;0.37;87.46
13765;BME280;6953;48.810;9.204;2023-03-01T00:25:13;99239.94;;;-1.62;86.73
13765;BME280;6953;48.810;9.204;2023-03-01T00:27:38;99472.91;;;-0.34;87.37
13765;BME280;6953;48.810;9.204;2023-03-01T00:30:04;99579.63;;;0.27;87.90
13765;BME280;6953;48.810;9.204;2023-03-01T00:32:30;99573.59;;;0.25;87.54
13765;BME280;6953;48.810;9.204;2023-03-01T00:34:55;99568.44;;;0.24;87.62
13765;BME280;6953;48.810;9.204;2023-03-01T00:37:22;99384.28;;;-0.87;88.37
13765;BME280;6953;48.810;9.204;2023-03-01T00:39:47;99570.16;;;0.20;88.20
13765;BME280;6953;48.810;9.204;2023-03-01T00:42:13;99501.28;;;-0.15;88.57
13765;BME280;6953;48.810;9.204;2023-03-01T00:44:38;99462.59;;;-0.37;88.12
13765;BME280;6953;48.810;9.204;2023-03-01T00:47:04;99550.34;;;0.10;88.67
13765;BME280;6953;48.810;9.204;2023-03-01T00:49:29;99327.53;;;-1.23;88.70
13765;BME280;6953;48.810;9.204;2023-03-01T00:51:55;99512.47;;;-0.13;88.53
13765;BME280;6953;48.810;9.204;2023-03-01T00:54:20;99571.84;;;0.11;88.41
13765;BME280;6953;48.810;9.204;2023-03-01T00:56:45;99550.34;;;0.01;89.25
13765;BME280;6953;48.810;9.204;2023-03-01T00:59:11;99563.25;;;0.07;88.97
13765;BME280;6953;48.810;9.204;2023-03-01T01:01:36;99587.28;;;0.02;88.99
13765;BME280;6953;48.810;9.204;2023-03-01T01:04:04;99559.78;;;-0.02;89.12
13765;BME280;6953;48.810;9.204;2023-03-01T01:06:33;99229.53;;;-1.90;89.63
13765;BME280;6953;48.810;9.204;2023-03-01T01:08:59;99586.44;;;0.03;89.85
13765;BME280;6953;48.810;9.204;2023-03-01T01:11:27;99226.94;;;-1.93;89.44
13765;BME280;6953;48.810;9.204;2023-03-01T01:13:52;99244.97;;;-1.81;89.72
13765;BME280;6953;48.810;9.204;2023-03-01T01:16:19;99561.50;;;0.02;89.70
13765;BME280;6953;48.810;9.204;2023-03-01T01:18:45;99564.06;;;-0.03;89.82
13765;BME280;6953;48.810;9.204;2023-03-01T01:21:13;99549.44;;;-0.14;90.08
13765;BME280;6953;48.810;9.204;2023-03-01T01:23:40;99564.91;;;-0.08;90.50
13765;BME280;6953;48.810;9.204;2023-03-01T01:26:29;99559.78;;;-0.03;90.83
13765;BME280;6953;48.810;9.204;2023-03-01T01:28:55;99266.47;;;-1.70;90.14
13765;BME280;6953;48.810;9.204;2023-03-01T01:31:22;99546.88;;;-0.03;90.32
13765;BME280;6953;48.810;9.204;2023-03-01T01:33:52;99547.75;;;-0.02;90.54
13765;BME280;6953;48.810;9.204;2023-03-01T01:36:17;99540.00;;;-0.04;90.67
13765;BME280;6953;48.810;9.204;2023-03-01T01:38:43;99537.44;;;-0.03;90.47
13765;BME280;6953;48.810;9.204;2023-03-01T01:41:09;99527.97;;;-0.04;90.93
13765;BME280;6953;48.810;9.204;2023-03-01T01:43:41;99487.53;;;-0.29;90.93
13765;BME280;6953;48.810;9.204;2023-03-01T01:48:52;99473.75;;;-0.34;91.43
13765;BME280;6953;48.810;9.204;2023-03-01T01:51:23;99530.59;;;0.17;90.59
13765;BME280;6953;48.810;9.204;2023-03-01T01:53:54;99246.88;;;-1.28;89.59
13765;BME280;6953;48.810;9.204;2023-03-01T01:56:24;99531.47;;;0.56;88.54
13765;BME280;6953;48.810;9.204;2023-03-01T01:58:51;99466.13;;;0.38;87.68
13765;BME280;6953;48.810;9.204;2023-03-01T02:01:17;99429.09;;;0.31;87.68
13765;BME280;6953;48.810;9.204;2023-03-01T02:03:44;99543.50;;;0.96;86.90
13765;BME280;6953;48.810;9.204;2023-03-01T02:06:20;99497.84;;;1.04;85.95
13765;BME280;6953;48.810;9.204;2023-03-01T02:08:48;99216.03;;;-0.38;85.22
13765;BME280;6953;48.810;9.204;2023-03-01T02:11:17;99505.44;;;1.50;84.40
13765;BME280;6953;48.810;9.204;2023-03-01T02:13:44;99491.66;;;1.48;83.95
13765;BME280;6953;48.810;9.204;2023-03-01T02:16:14;99502.78;;;1.68;83.22
13765;BME280;6953;48.810;9.204;2023-03-01T02:18:41;99144.75;;;-0.33;82.83
13765;BME280;6953;48.810;9.204;2023-03-01T02:23:33;99312.84;;;0.81;82.25
13765;BME280;6953;48.810;9.204;2023-03-01T02:26:25;99488.81;;;1.95;81.72
13765;BME280;6953;48.810;9.204;2023-03-01T02:28:54;99491.41;;;1.96;81.21
13765;BME280;6953;48.810;9.204;2023-03-01T02:31:21;99455.25;;;1.89;81.22
13765;BME280;6953;48.810;9.204;2023-03-01T02:34:06;99455.19;;;1.96;80.37
13765;BME280;6953;48.810;9.204;2023-03-01T02:36:37;99455.97;;;2.07;80.33
13765;BME280;6953;48.810;9.204;2023-03-01T02:39:06;99475.72;;;2.23;80.32
13765;BME280;6953;48.810;9.204;2023-03-01T02:41:36;99483.44;;;2.26;80.24
13765;BME280;6953;48.810;9.204;2023-03-01T02:44:03;99377.72;;;1.77;79.81
13765;BME280;6953;48.810;9.204;2023-03-01T02:46:28;99461.00;;;2.29;79.48
13765;BME280;6953;48.810;9.204;2023-03-01T02:48:56;99479.19;;;2.19;79.53
13765;BME280;6953;48.810;9.204;2023-03-01T02:51:49;99467.81;;;2.41;79.32
13765;BME280;6953;48.810;9.204;2023-03-01T02:57:02;99472.97;;;2.41;78.93
13765;BME280;6953;48.810;9.204;2023-03-01T02:59:30;99457.41;;;2.42;78.93
13765;BME280;6953;48.810;9.204;2023-03-01T03:01:56;99485.91;;;2.39;79.37
13765;BME280;6953;48.810;9.204;2023-03-01T03:04:22;99436.81;;;2.33;78.98
13765;BME280;6953;48.810;9.204;2023-03-01T03:06:49;99452.22;;;2.45;78.79
13765;BME280;6953;48.810;9.204;2023-03-01T03:09:15;99451.34;;;2.46;78.81
13765;BME280;6953;48.810;9.204;2023-03-01T03:11:41;99340.59;;;1.87;78.57
13765;BME280;6953;48.810;9.204;2023-03-01T03:14:09;99248.00;;;1.24;78.32
13765;BME280;6953;48.810;9.204;2023-03-01T03:16:42;99438.25;;;2.61;78.46
13765;BME280;6953;48.810;9.204;2023-03-01T03:19:08;99144.03;;;0.92;77.87
13765;BME280;6953;48.810;9.204;2023-03-01T03:21:34;99154.34;;;1.00;78.09
13765;BME280;6953;48.810;9.204;2023-03-01T03:23:59;99356.66;;;2.18;78.28
13765;BME280;6953;48.810;9.204;2023-03-01T03:26:25;99446.03;;;2.58;78.45
13765;BME280;6953;48.810;9.204;2023-03-01T03:28:50;99413.22;;;2.62;77.75
13765;BME280;6953;48.810;9.204;2023-03-01T03:31:16;99399.44;;;2.55;77.71
13765;BME280;6953;48.810;9.204;2023-03-01T03:33:41;99445.16;;;2.59;77.91
13765;BME280;6953;48.810;9.204;2023-03-01T03:36:07;99146.47;;;1.11;77.63
13765;BME280;6953;48.810;9.204;2023-03-01T03:38:38;99464.84;;;2.80;77.89
13765;BME280;6953;48.810;9.204;2023-03-01T03:41:06;99446.72;;;2.75;77.38
13765;BME280;6953;48.810;9.204;2023-03-01T03:43:34;99432.00;;;2.85;77.44
13765;BME280;6953;48.810;9.204;2023-03-01T03:45:59;99327.28;;;2.25;77.61
13765;BME280;6953;48.810;9.204;2023-03-01T03:48:25;99433.66;;;2.90;77.41
13765;BME280;6953;48.810;9.204;2023-03-01T03:50:55;99146.31;;;1.29;77.34
13765;BME280;6953;48.810;9.204;2023-03-01T03:53:22;99089.69;;;1.07;76.85
13765;BME280;6953;48.810;9.204;2023-03-01T03:55:48;99455.13;;;3.00;77.29
13765;BME280;6953;48.810;9.204;2023-03-01T03:58:17;99276.44;;;2.20;76.73
13765;BME280;6953;48.810;9.204;2023-03-01T04:00:45;99425.66;;;3.08;76.98
13765;BME280;6953;48.810;9.204;2023-03-01T04:03:12;99338.03;;;2.68;76.51
13765;BME280;6953;48.810;9.204;2023-03-01T04:05:40;99409.19;;;3.13;76.23
13765;BME280;6953;48.810;9.204;2023-03-01T04:08:06;99414.34;;;3.16;75.94
13765;BME280;6953;48.810;9.204;2023-03-01T04:10:37;99444.53;;;3.19;75.56
13765;BME280;6953;48.810;9.204;2023-03-01T04:13:03;99399.00;;;2.99;75.82
13765;BME280;6953;48.810;9.204;2023-03-01T04:15:31;99317.22;;;2.77;75.34
13765;BME280;6953;48.810;9.204;2023-03-01T04:17:57;99191.22;;;2.03;74.99
13765;BME280;6953;48.810;9.204;2023-03-01T04:20:26;99326.63;;;2.84;75.23
13765;BME280;6953;48.810;9.204;2023-03-01T04:22:56;99346.38;;;2.94;75.40
13765;BME280;6953;48.810;9.204;2023-03-01T04:25:25;99423.72;;;3.25;75.42
13765;BME280;6953;48.810;9.204;2023-03-01T04:27:50;99397.72;;;3.31;75.13
13765;BME280;6953;48.810;9.204;2023-03-01T04:30:16;99294.81;;;2.73;74.99
13765;BME280;6953;48.810;9.204;2023-03-01T04:32:41;99292.25;;;2.70;75.10
13765;BME280;6953;48.810;9.204;2023-03-01T04:35:07;99395.97;;;3.33;74.64
13765;BME280;6953;48.810;9.204;2023-03-01T04:37:33;99360.88;;;3.06;74.24
13765;BME280;6953;48.810;9.204;2023-03-01T04:40:00;99147.47;;;1.84;74.23
13765;BME280;6953;48.810;9.204;2023-03-01T04:42:25;99436.63;;;3.29;74.37
13765;BME280;6953;48.810;9.204;2023-03-01T04:44:50;99113.19;;;1.69;74.27
13765;BME280;6953;48.810;9.204;2023-03-01T04:47:16;99419.28;;;3.36;74.33
13765;BME280;6953;48.810;9.204;2023-03-01T04:49:42;99397.66;;;3.35;74.06
13765;BME280;6953;48.810;9.204;2023-03-01T04:52:07;99342.72;;;3.06;74.37
13765;BME280;6953;48.810;9.204;2023-03-01T04:54:35;99426.13;;;3.40;74.70
13765;BME280;6953;48.810;9.204;2023-03-01T04:57:01;99413.25;;;3.32;74.61
13765;BME280;6953;48.810;9.204;2023-03-01T04:59:27;99131.94;;;1.86;74.09
13765;BME280;6953;48.810;9.204;2023-03-01T05:01:54;99388.13;;;3.37;73.65
13765;BME280;6953;48.810;9.204;2023-03-01T05:04:25;99400.25;;;3.35;74.26
13765;BME280;6953;48.810;9.204;2023-03-01T05:06:51;99389.84;;;3.37;74.35
13765;BME280;6953;48.810;9.204;2023-03-01T05:09:18;99304.13;;;2.86;74.45
13765;BME280;6953;48.810;9.204;2023-03-01T05:11:43;99397.63;;;3.38;74.02
13765;BME280;6953;48.810;9.204;2023-03-01T05:14:09;99439.09;;;3.40;74.10
13765;BME280;6953;48.810;9.204;2023-03-01T05:16:35;99377.81;;;3.33;74.26
13765;BME280;6953;48.810;9.204;2023-03-01T05:19:02;99134.56;;;1.83;73.75
13765;BME280;6953;48.810;9.204;2023-03-01T05:21:39;99385.50;;;3.40;74.16
13765;BME280;6953;48.810;9.204;2023-03-01T05:24:25;99388.09;;;3.39;74.24
13765;BME280;6953;48.810;9.204;2023-03-01T05:26:50;99384.66;;;3.38;74.11
13765;BME280;6953;48.810;9.204;2023-03-01T05:29:20;99329.00;;;3.00;74.00
13765;BME280;6953;48.810;9.204;2023-03-01T05:31:54;99280.88;;;2.83;73.98
13765;BME280;6953;48.810;9.204;2023-03-01T05:34:23;99284.34;;;2.80;74.29
13765;BME280;6953;48.810;9.204;2023-03-01T05:36:49;99267.34;;;2.58;74.16
13765;BME280;6953;48.810;9.204;2023-03-01T05:39:21;99401.16;;;3.31;74.41
13765;BME280;6953;48.810;9.204;2023-03-01T05:41:48;99270.66;;;2.72;73.69
13765;BME280;6953;48.810;9.204;2023-03-01T05:44:14;99374.44;;;3.28;74.22
13765;BME280;6953;48.810;9.204;2023-03-01T05:46:39;99395.00;;;3.40;74.27
13765;BME280;6953;48.810;9.204;2023-03-01T05:49:04;99297.31;;;2.82;74.21
13765;BME280;6953;48.810;9.204;2023-03-01T05:51:30;99096.81;;;1.68;73.55
13765;BME280;6953;48.810;9.204;2023-03-01T05:53:55;99383.06;;;3.30;73.99
13765;BME280;6953;48.810;9.204;2023-03-01T05:56:21;99387.25;;;3.38;73.56
13765;BME280;6953;48.810;9.204;2023-03-01T05:58:48;99386.38;;;3.39;73.97
13765;BME280;6953;48.810;9.204;2023-03-01T06:01:14;99402.81;;;3.38;74.13
13765;BME280;6953;48.810;9.204;2023-03-01T06:03:40;99378.59;;;3.39;74.13
13765;BME280;6953;48.810;9.204;2023-03-01T06:06:05;99383.78;;;3.38;73.64
13765;BME280;6953;48.810;9.204;2023-03-01T06:08:30;99166.06;;;2.16;74.11
13765;BME280;6953;48.810;9.204;2023-03-01T06:10:56;99157.56;;;2.06;73.99
13765;BME280;6953;48.810;9.204;2023-03-01T06:13:22;99383.94;;;3.29;73.52
13765;BME280;6953;48.810;9.204;2023-03-01T06:15:48;99105.34;;;1.76;74.01
13765;BME280;6953;48.810;9.204;2023-03-01T06:18:13;99386.66;;;3.17;73.98
13765;BME280;6953;48.810;9.204;2023-03-01T06:20:39;99358.94;;;3.23;74.01
13765;BME280;6953;48.810;9.204;2023-03-01T06:23:04;99093.38;;;1.68;74.16
13765;BME280;6953;48.810;9.204;2023-03-01T06:25:29;99370.06;;;3.33;74.17
13765;BME280;6953;48.810;9.204;2023-03-01T06:27:55;99403.69;;;3.37;73.65
13765;BME280;6953;48.810;9.204;2023-03-01T06:30:22;99374.25;;;3.41;73.82
13765;BME280;6953;48.810;9.204;2023-03-01T06:32:48;99366.44;;;3.43;73.80
13765;BME280;6953;48.810;9.204;2023-03-01T06:35:15;99081.16;;;1.80;73.70
13765;BME280;6953;48.810;9.204;2023-03-01T06:37:43;99377.88;;;3.28;73.25
13765;BME280;6953;48.810;9.204;2023-03-01T06:40:10;99343.53;;;3.11;73.27
13765;BME280;6953;48.810;9.204;2023-03-01T06:42:37;99284.22;;;2.92;73.45
13765;BME280;6953;48.810;9.204;2023-03-01T06:45:05;99429.34;;;3.57;73.90
13765;BME280;6953;48.810;9.204;2023-03-01T06:47:30;99161.56;;;2.31;73.24
13765;BME280;6953;48.810;9.204;2023-03-01T06:49:56;99385.06;;;3.72;72.94
13765;BME280;6953;48.810;9.204;2023-03-01T06:52:21;99061.06;;;1.99;72.66
13765;BME280;6953;48.810;9.204;2023-03-01T06:54:46;99406.25;;;3.99;72.00
13765;BME280;6953;48.810;9.204;2023-03-01T06:57:12;99382.50;;;4.23;71.63
13765;BME280;6953;48.810;9.204;2023-03-01T06:59:37;99157.94;;;3.03;70.79
13765;BME280;6953;48.810;9.204;2023-03-01T07:02:02;99373.88;;;4.21;70.57
13765;BME280;6953;48.810;9.204;2023-03-01T07:04:28;99383.78;;;3.98;71.20
13765;BME280;6953;48.810;9.204;2023-03-01T07:06:56;99381.50;;;3.77;71.38
13765;BME280;6953;48.810;9.204;2023-03-01T07:09:24;99417.09;;;3.68;72.09
13765;BME280;6953;48.810;9.204;2023-03-01T07:11:50;99370.59;;;3.56;72.58
13765;BME280;6953;48.810;9.204;2023-03-01T07:14:15;99353.50;;;3.40;73.07
13765;BME280;6953;48.810;9.204;2023-03-01T07:16:41;99322.75;;;3.14;73.35
13765;BME280;6953;48.810;9.204;2023-03-01T07:19:06;99390.75;;;3.36;73.20
13765;BME280;6953;48.810;9.204;2023-03-01T07:21:32;99363.13;;;3.33;72.89
13765;BME280;6953;48.810;9.204;2023-03-01T07:23:57;99367.66;;;3.16;73.08
13765;BME280;6953;48.810;9.204;2023-03-01T07:26:22;99350.25;;;3.26;73.17
13765;BME280;6953;48.810;9.204;2023-03-01T07:28:48;99358.78;;;3.35;73.08
13765;BME280;6953;48.810;9.204;2023-03-01T07:31:13;99080.28;;;1.80;73.26
13765;BME280;6953;48.810;9.204;2023-03-01T07:33:38;99348.31;;;3.41;72.97
13765;BME280;6953;48.810;9.204;2023-03-01T07:36:04;99073.31;;;1.86;72.56
13765;BME280;6953;48.810;9.204;2023-03-01T07:38:30;99345.56;;;3.52;72.24
13765;BME280;6953;48.810;9.204;2023-03-01T07:41:03;99336.06;;;3.51;71.67
13765;BME280;6953;48.810;9.204;2023-03-01T07:43:29;99255.44;;;3.10;71.80
13765;BME280;6953;48.810;9.204;2023-03-01T07:45:58;99298.16;;;3.42;71.51
13765;BME280;6953;48.810;9.204;2023-03-01T07:48:25;99343.47;;;3.76;71.35
13765;BME280;6953;48.810;9.204;2023-03-01T07:50:50;99337.41;;;3.77;70.80
13765;BME280;6953;48.810;9.204;2023-03-01T07:53:15;99109.44;;;2.57;70.64
13765;BME280;6953;48.810;9.204;2023-03-01T07:55:41;99256.59;;;3.47;70.25
13765;BME280;6953;48.810;9.204;2023-03-01T07:58:06;99229.00;;;3.43;69.78
13765;BME280;6953;48.810;9.204;2023-03-01T08:00:31;99358.56;;;4.05;69.88
13765;BME280;6953;48.810;9.204;2023-03-01T08:02:59;99317.72;;;4.15;68.96
13765;BME280;6953;48.810;9.204;2023-03-01T08:05:25;99338.22;;;4.30;68.86
13765;BME280;6953;48.810;9.204;2023-03-01T08:07:50;99334.56;;;4.40;68.85
13765;BME280;6953;48.810;9.204;2023-03-01T08:10:16;99043.31;;;2.88;68.10
13765;BME280;6953;48.810;9.204;2023-03-01T08:12:41;99333.75;;;5.61;65.63
13765;BME280;6953;48.810;9.204;2023-03-01T08:15:07;99077.44;;;6.91;54.80
13765;BME280;6953;48.810;9.204;2023-03-01T08:17:32;99094.69;;;9.28;45.43
13765;BME280;6953;48.810;9.204;2023-03-01T08:19:58;99339.63;;;12.49;40.27
13765;BME280;6953;48.810;9.204;2023-03-01T08:22:23;99335.78;;;13.70;35.37
13765;BME280;6953;48.810;9.204;2023-03-01T08:24:48;99351.91;;;14.57;33.14
13765;BME280;6953;48.810;9.204;2023-03-01T08:27:15;99369.16;;;15.35;31.26
13765;BME280;6953;48.810;9.204;2023-03-01T08:29:41;99355.44;;;15.98;29.79
13765;BME280;6953;48.810;9.204;2023-03-01T08:32:06;99367.88;;;16.63;28.95
13765;BME280;6953;48.810;9.204;2023-03-01T08:34:32;99189.53;;;16.11;27.32
13765;BME280;6953;48.810;9.204;2023-03-01T08:36:57;99305.53;;;17.33;26.75
13765;BME280;6953;48.810;9.204;2023-03-01T08:39:23;99382.38;;;18.08;26.09
13765;BME280;6953;48.810;9.204;2023-03-01T08:41:48;99357.06;;;18.51;24.94
13765;BME280;6953;48.810;9.204;2023-03-01T08:44:15;99385.44;;;18.74;24.33
13765;BME280;6953;48.810;9.204;2023-03-01T08:46:42;99210.88;;;17.93;24.82
13765;BME280;6953;48.810;9.204;2023-03-01T08:49:10;99366.69;;;19.09;24.48
13765;BME280;6953;48.810;9.204;2023-03-01T08:51:36;99382.06;;;19.51;23.90
13765;BME280;6953;48.810;9.204;2023-03-01T08:54:14;99287.56;;;19.35;23.58
13765;BME280;6953;48.810;9.204;2023-03-01T08:56:40;99348.41;;;20.16;22.89
13765;BME280;6953;48.810;9.204;2023-03-01T08:59:06;99354.19;;;20.74;22.14
13765;BME280;6953;48.810;9.204;2023-03-01T09:01:32;99374.88;;;21.13;21.76
13765;BME280;6953;48.810;9.204;2023-03-01T09:03:57;99361.50;;;21.54;20.75
13765;BME280;6953;48.810;9.204;2023-03-01T09:06:23;99328.13;;;21.69;20.78
13765;BME280;6953;48.810;9.204;2023-03-01T09:08:49;99358.69;;;21.55;20.91
13765;BME280;6953;48.810;9.204;2023-03-01T09:11:17;99280.28;;;21.26;20.96
13765;BME280;6953;48.810;9.204;2023-03-01T09:13:44;99354.47;;;21.83;20.70
13765;BME280;6953;48.810;9.204;2023-03-01T09:16:11;99347.44;;;22.11;20.47
13765;BME280;6953;48.810;9.204;2023-03-01T09:18:37;99341.09;;;22.12;19.88
13765;BME280;6953;48.810;9.204;2023-03-01T09:21:22;99322.31;;;22.42;19.54
13765;BME280;6953;48.810;9.204;2023-03-01T09:23:48;99269.47;;;22.06;20.12
13765;BME280;6953;48.810;9.204;2023-03-01T09:26:22;99299.53;;;22.48;19.10
13765;BME280;6953;48.810;9.204;2023-03-01T09:28:49;99340.09;;;22.72;19.63
13765;BME280;6953;48.810;9.204;2023-03-01T09:31:16;99324.44;;;22.96;18.95
13765;BME280;6953;48.810;9.204;2023-03-01T09:33:42;99334.13;;;23.44;18.68
13765;BME280;6953;48.810;9.204;2023-03-01T09:36:11;99327.81;;;24.08;18.34
13765;BME280;6953;48.810;9.204;2023-03-01T09:38:37;99147.34;;;23.54;17.24
13765;BME280;6953;48.810;9.204;2023-03-01T09:41:58;99345.34;;;24.74;17.19
13765;BME280;6953;48.810;9.204;2023-03-01T09:46:55;99310.22;;;25.10;16.83
13765;BME280;6953;48.810;9.204;2023-03-01T09:49:25;99120.69;;;24.14;17.04
13765;BME280;6953;48.810;9.204;2023-03-01T09:51:57;99236.00;;;24.84;16.59
13765;BME280;6953;48.810;9.204;2023-03-01T09:54:24;99265.25;;;25.63;16.47
13765;BME280;6953;48.810;9.204;2023-03-01T10:00:13;99313.50;;;26.47;15.91
13765;BME280;6953;48.810;9.204;2023-03-01T10:02:45;99255.16;;;26.47;15.65
13765;BME280;6953;48.810;9.204;2023-03-01T10:07:56;99300.50;;;26.35;15.60
13765;BME280;6953;48.810;9.204;2023-03-01T10:10:37;99297.94;;;26.90;15.39
13765;BME280;6953;48.810;9.204;2023-03-01T10:13:46;99248.69;;;27.36;15.28
13765;BME280;6953;48.810;9.204;2023-03-01T10:16:16;99301.75;;;28.06;14.48
13765;BME280;6953;48.810;9.204;2023-03-01T10:18:46;99294.44;;;28.83;14.06
13765;BME280;6953;48.810;9.204;2023-03-01T10:21:18;99297.91;;;28.91;13.62
13765;BME280;6953;48.810;9.204;2023-03-01T10:23:44;99129.78;;;27.31;13.97
13765;BME280;6953;48.810;9.204;2023-03-01T10:26:20;99282.75;;;27.91;14.48
13765;BME280;6953;48.810;9.204;2023-03-01T10:29:01;99273.81;;;27.37;14.35
13765;BME280;6953;48.810;9.204;2023-03-01T10:31:37;99212.72;;;27.05;15.09
13765;BME280;6953;48.810;9.204;2023-03-01T10:34:12;99108.97;;;27.01;14.24
13765;BME280;6953;48.810;9.204;2023-03-01T10:36:38;99266.22;;;28.33;13.88
13765;BME280;6953;48.810;9.204;2023-03-01T10:39:13;99260.34;;;28.74;13.69
13765;BME280;6953;48.810;9.204;2023-03-01T10:41:52;99272.84;;;28.97;13.30
13765;BME280;6953;48.810;9.204;2023-03-01T10:47:03;99096.22;;;27.72;13.46
13765;BME280;6953;48.810;9.204;2023-03-01T10:49:29;99210.25;;;28.19;13.74
13765;BME280;6953;48.810;9.204;2023-03-01T10:51:55;99261.81;;;28.62;13.63
13765;BME280;6953;48.810;9.204;2023-03-01T10:54:31;99252.88;;;28.31;13.87
13765;BME280;6953;48.810;9.204;2023-03-01T10:57:00;99093.22;;;27.67;13.70
13765;BME280;6953;48.810;9.204;2023-03-01T10:59:31;99189.78;;;28.24;13.62
13765;BME280;6953;48.810;9.204;2023-03-01T11:04:34;99240.97;;;28.93;13.52
13765;BME280;6953;48.810;9.204;2023-03-01T11:07:01;99217.19;;;29.54;12.77
13765;BME280;6953;48.810;9.204;2023-03-01T11:09:31;99230.88;;;30.31;12.75
13765;BME280;6953;48.810;9.204;2023-03-01T11:12:03;99174.50;;;30.56;12.19
13765;BME280;6953;48.810;9.204;2023-03-01T11:14:38;99231.97;;;31.20;12.11
13765;BME280;6953;48.810;9.204;2023-03-01T11:17:14;99137.19;;;30.85;11.84
13765;BME280;6953;48.810;9.204;2023-03-01T11:19:41;99245.31;;;31.77;11.78
13765;BME280;6953;48.810;9.204;2023-03-01T11:22:26;99209.72;;;31.31;12.15
13765;BME280;6953;48.810;9.204;2023-03-01T11:24:54;99217.31;;;30.67;12.41
13765;BME280;6953;48.810;9.204;2023-03-01T11:27:26;98990.13;;;29.53;12.33
13765;BME280;6953;48.810;9.204;2023-03-01T11:30:06;99199.19;;;31.49;11.64
13765;BME280;6953;48.810;9.204;2023-03-01T11:32:39;99083.72;;;30.73;11.96
13765;BME280;6953;48.810;9.204;2023-03-01T11:35:21;99180.28;;;31.01;12.16
13765;BME280;6953;48.810;9.204;2023-03-01T11:40:43;99126.19;;;29.67;12.73
13765;BME280;6953;48.810;9.204;2023-03-01T11:50:52;99137.09;;;30.30;12.27
13765;BME280;6953;48.810;9.204;2023-03-01T11:59:02;99141.81;;;29.86;12.93
13765;BME280;6953;48.810;9.204;2023-03-01T12:04:10;99125.66;;;29.29;13.21
13765;BME280;6953;48.810;9.204;2023-03-01T12:07:06;99127.56;;;29.78;12.74
13765;BME280;6953;48.810;9.204;2023-03-01T12:12:45;99117.84;;;29.48;13.04
13765;BME280;6953;48.810;9.204;2023-03-01T12:15:47;99092.41;;;28.99;13.34
13765;BME280;6953;48.810;9.204;2023-03-01T12:19:06;98920.13;;;28.58;13.00
13765;BME280;6953;48.810;9.204;2023-03-01T12:24:10;99096.59;;;31.32;12.01
13765;BME280;6953;48.810;9.204;2023-03-01T12:32:51;99078.41;;;30.37;12.41
13765;BME280;6953;48.810;9.204;2023-03-01T12:35:31;99070.38;;;30.02;13.21
13765;BME280;6953;48.810;9.204;2023-03-01T12:48:40;98844.72;;;28.13;13.83
13765;BME280;6953;48.810;9.204;2023-03-01T12:51:12;99016.47;;;29.86;13.06
13765;BME280;6953;48.810;9.204;2023-03-01T12:53:44;98838.66;;;28.75;13.18
13765;BME280;6953;48.810;9.204;2023-03-01T12:56:15;98841.91;;;28.50;12.89
13765;BME280;6953;48.810;9.204;2023-03-01T12:58:59;99025.75;;;28.49;13.61
13765;BME280;6953;48.810;9.204;2023-03-01T13:02:03;98955.19;;;27.11;14.49
13765;BME280;6953;48.810;9.204;2023-03-01T13:05:00;99006.97;;;26.28;15.45
13765;BME280;6953;48.810;9.204;2023-03-01T13:07:41;99008.06;;;27.04;15.05
13765;BME280;6953;48.810;9.204;2023-03-01T13:10:34;98999.81;;;27.88;14.36
13765;BME280;6953;48.810;9.204;2023-03-01T13:15:32;98998.16;;;24.15;17.54
13765;BME280;6953;48.810;9.204;2023-03-01T13:20:55;98926.84;;;19.72;21.61
13765;BME280;6953;48.810;9.204;2023-03-01T13:26:08;98961.53;;;17.90;23.90
13765;BME280;6953;48.810;9.204;2023-03-01T13:33:59;98951.78;;;16.41;26.94
13765;BME280;6953;48.810;9.204;2023-03-01T13:39:02;98810.16;;;14.75;27.74
13765;BME280;6953;48.810;9.204;2023-03-01T13:49:36;98932.78;;;14.45;30.87
13765;BME280;6953;48.810;9.204;2023-03-01T13:52:06;98843.94;;;13.77;31.32
13765;BME280;6953;48.810;9.204;2023-03-01T13:54:32;98685.63;;;12.70;31.56
13765;BME280;6953;48.810;9.204;2023-03-01T13:56:59;98856.50;;;13.46;31.92
13765;BME280;6953;48.810;9.204;2023-03-01T13:59:25;98854.22;;;13.26;32.55
13765;BME280;6953;48.810;9.204;2023-03-01T14:01:57;98866.63;;;13.10;33.09
13765;BME280;6953;48.810;9.204;2023-03-01T14:04:26;98836.31;;;12.59;33.78
13765;BME280;6953;48.810;9.204;2023-03-01T14:07:18;98865.84;;;12.64;34.35
13765;BME280;6953;48.810;9.204;2023-03-01T14:09:46;98652.00;;;11.30;34.65
13765;BME280;6953;48.810;9.204;2023-03-01T14:17:40;98754.38;;;11.62;35.95
13765;BME280;6953;48.810;9.204;2023-03-01T14:20:28;98907.84;;;12.37;37.03
13765;BME280;6953;48.810;9.204;2023-03-01T14:22:58;98841.19;;;11.76;37.12
13765;BME280;6953;48.810;9.204;2023-03-01T14:25:31;98907.94;;;12.04;37.95
13765;BME280;6953;48.810;9.204;2023-03-01T14:28:24;98894.44;;;11.79;38.33
13765;BME280;6953;48.810;9.204;2023-03-01T14:30:57;98894.00;;;11.71;38.90
13765;BME280;6953;48.810;9.204;2023-03-01T14:36:00;98826.78;;;11.03;39.20
13765;BME280;6953;48.810;9.204;2023-03-01T14:38:46;98924.03;;;11.50;39.81
13765;BME280;6953;48.810;9.204;2023-03-01T14:41:16;98716.00;;;10.15;40.06
13765;BME280;6953;48.810;9.204;2023-03-01T14:43:45;98991.28;;;11.38;40.07
13765;BME280;6953;48.810;9.204;2023-03-01T14:46:39;98931.94;;;11.34;40.57
13765;BME280;6953;48.810;9.204;2023-03-01T14:49:11;98931.84;;;11.35;40.72
13765;BME280;6953;48.810;9.204;2023-03-01T14:51:40;98661.19;;;9.76;40.40
13765;BME280;6953;48.810;9.204;2023-03-01T14:54:25;98965.69;;;11.41;40.42
13765;BME280;6953;48.810;9.204;2023-03-01T14:56:57;98883.72;;;11.02;40.81
13765;BME280;6953;48.810;9.204;2023-03-01T14:59:24;98712.53;;;9.97;40.91
13765;BME280;6953;48.810;9.204;2023-03-01T15:01:55;98626.94;;;9.45;41.40
13765;BME280;6953;48.810;9.204;2023-03-01T15:04:22;98934.59;;;11.17;41.33